sensor_id;sensor_type;location;lat;lon;timestamp;P1;P2;P0
70255;PMS5003;57669;52.624;-1.688;2022-07-29T00:01:26;3;2;
70255;PMS5003;57669;52.624;-1.688;2022-07-29T00:03:52;3;3;
70255;PMS5003;57669;52.624;-1.688;2022-07-29T00:06:18;2;2;
70255;PMS5003;57669;52.624;-1.688;2022-07-29T00:08:43;1;1;
70255;PMS5003;57669;52.624;-1.688;2022-07-29T00:11:09;3;3;
70255;PMS5003;57669;52.624;-1.688;2022-07-29T00:13:35;3;3;
70255;PMS5003;57669;52.624;-1.688;2022-07-29T00:16:00;2;2;
70255;PMS5003;57669;52.624;-1.688;2022-07-29T00:18:26;2;2;
70255;PMS5003;57669;52.624;-1.688;2022-07-29T00:20:52;4;3;
70255;PMS5003;57669;52.624;-1.688;2022-07-29T00:23:17;2;2;
70255;PMS5003;57669;52.624;-1.688;2022-07-29T00:25:43;3;2;
70255;PMS5003;57669;52.624;-1.688;2022-07-29T00:28:09;3;1;
70255;PMS5003;57669;52.624;-1.688;2022-07-29T00:30:34;4;4;
70255;PMS5003;57669;52.624;-1.688;2022-07-29T00:33:00;3;3;
70255;PMS5003;57669;52.624;-1.688;2022-07-29T00:37:51;5;4;
70255;PMS5003;57669;52.624;-1.688;2022-07-29T00:40:17;4;4;
70255;PMS5003;57669;52.624;-1.688;2022-07-29T00:42:43;4;4;
70255;PMS5003;57669;52.624;-1.688;2022-07-29T00:45:08;5;4;
70255;PMS5003;57669;52.624;-1.688;2022-07-29T00:47:33;3;3;
70255;PMS5003;57669;52.624;-1.688;2022-07-29T00:49:59;3;3;
70255;PMS5003;57669;52.624;-1.688;2022-07-29T00:52:25;2;2;
70255;PMS5003;57669;52.624;-1.688;2022-07-29T00:54:50;4;3;
70255;PMS5003;57669;52.624;-1.688;2022-07-29T00:57:16;3;3;
70255;PMS5003;57669;52.624;-1.688;2022-07-29T00:59:42;3;3;
70255;PMS5003;57669;52.624;-1.688;2022-07-29T01:02:07;0;0;
70255;PMS5003;57669;52.624;-1.688;2022-07-29T01:04:34;3;3;
70255;PMS5003;57669;52.624;-1.688;2022-07-29T01:06:59;2;2;
70255;PMS5003;57669;52.624;-1.688;2022-07-29T01:09:24;4;4;
70255;PMS5003;57669;52.624;-1.688;2022-07-29T01:11:50;3;2;
70255;PMS5003;57669;52.624;-1.688;2022-07-29T01:14:16;5;2;
70255;PMS5003;57669;52.624;-1.688;2022-07-29T01:16:43;3;3;
70255;PMS5003;57669;52.624;-1.688;2022-07-29T01:19:10;2;2;
70255;PMS5003;57669;52.624;-1.688;2022-07-29T01:21:38;2;2;
70255;PMS5003;57669;52.624;-1.688;2022-07-29T01:24:01;2;2;
70255;PMS5003;57669;52.624;-1.688;2022-07-29T01:26:28;2;2;
70255;PMS5003;57669;52.624;-1.688;2022-07-29T01:31:16;1;1;
70255;PMS5003;57669;52.624;-1.688;2022-07-29T01:33:43;3;2;
70255;PMS5003;57669;52.624;-1.688;2022-07-29T01:36:12;1;1;
70255;PMS5003;57669;52.624;-1.688;2022-07-29T01:38:33;1;1;
70255;PMS5003;57669;52.624;-1.688;2022-07-29T01:41:00;2;2;
70255;PMS5003;57669;52.624;-1.688;2022-07-29T01:43:27;2;2;
70255;PMS5003;57669;52.624;-1.688;2022-07-29T01:45:50;1;1;
70255;PMS5003;57669;52.624;-1.688;2022-07-29T01:50:45;1;1;
70255;PMS5003;57669;52.624;-1.688;2022-07-29T01:53:09;3;3;
70255;PMS5003;57669;52.624;-1.688;2022-07-29T01:55:34;1;1;
70255;PMS5003;57669;52.624;-1.688;2022-07-29T01:57:58;1;1;
70255;PMS5003;57669;52.624;-1.688;2022-07-29T02:00:24;2;2;
70255;PMS5003;57669;52.624;-1.688;2022-07-29T02:02:49;1;1;
70255;PMS5003;57669;52.624;-1.688;2022-07-29T02:05:15;0;0;
70255;PMS5003;57669;52.624;-1.688;2022-07-29T02:07:41;3;3;
70255;PMS5003;57669;52.624;-1.688;2022-07-29T02:10:07;1;1;
70255;PMS5003;57669;52.624;-1.688;2022-07-29T02:12:32;4;3;
70255;PMS5003;57669;52.624;-1.688;2022-07-29T02:14:59;4;4;
70255;PMS5003;57669;52.624;-1.688;2022-07-29T02:17:25;2;1;
70255;PMS5003;57669;52.624;-1.688;2022-07-29T02:19:49;2;2;
70255;PMS5003;57669;52.624;-1.688;2022-07-29T02:22:15;3;2;
70255;PMS5003;57669;52.624;-1.688;2022-07-29T02:24:40;3;2;
70255;PMS5003;57669;52.624;-1.688;2022-07-29T02:27:06;4;3;
70255;PMS5003;57669;52.624;-1.688;2022-07-29T02:29:31;3;3;
70255;PMS5003;57669;52.624;-1.688;2022-07-29T02:31:57;2;2;
70255;PMS5003;57669;52.624;-1.688;2022-07-29T02:34:23;1;1;
70255;PMS5003;57669;52.624;-1.688;2022-07-29T02:36:48;4;4;
70255;PMS5003;57669;52.624;-1.688;2022-07-29T02:39:14;2;2;
70255;PMS5003;57669;52.624;-1.688;2022-07-29T02:41:41;2;2;
70255;PMS5003;57669;52.624;-1.688;2022-07-29T02:44:09;4;3;
70255;PMS5003;57669;52.624;-1.688;2022-07-29T02:46:31;2;2;
70255;PMS5003;57669;52.624;-1.688;2022-07-29T02:48:58;2;2;
70255;PMS5003;57669;52.624;-1.688;2022-07-29T02:51:24;2;2;
70255;PMS5003;57669;52.624;-1.688;2022-07-29T02:53:48;3;3;
70255;PMS5003;57669;52.624;-1.688;2022-07-29T02:56:14;1;1;
70255;PMS5003;57669;52.624;-1.688;2022-07-29T03:01:11;4;4;
70255;PMS5003;57669;52.624;-1.688;2022-07-29T03:03:31;3;3;
70255;PMS5003;57669;52.624;-1.688;2022-07-29T03:05:56;1;1;
70255;PMS5003;57669;52.624;-1.688;2022-07-29T03:08:21;2;1;
70255;PMS5003;57669;52.624;-1.688;2022-07-29T03:10:47;2;2;
70255;PMS5003;57669;52.624;-1.688;2022-07-29T03:13:13;2;2;
70255;PMS5003;57669;52.624;-1.688;2022-07-29T03:15:38;2;2;
70255;PMS5003;57669;52.624;-1.688;2022-07-29T03:18:05;2;2;
70255;PMS5003;57669;52.624;-1.688;2022-07-29T03:20:30;2;2;
70255;PMS5003;57669;52.624;-1.688;2022-07-29T03:22:55;1;1;
70255;PMS5003;57669;52.624;-1.688;2022-07-29T03:25:21;1;1;
70255;PMS5003;57669;52.624;-1.688;2022-07-29T03:27:47;4;3;
70255;PMS5003;57669;52.624;-1.688;2022-07-29T03:30:12;3;2;
70255;PMS5003;57669;52.624;-1.688;2022-07-29T03:32:39;3;3;
70255;PMS5003;57669;52.624;-1.688;2022-07-29T03:35:04;2;2;
70255;PMS5003;57669;52.624;-1.688;2022-07-29T03:37:29;2;2;
70255;PMS5003;57669;52.624;-1.688;2022-07-29T03:39:55;4;3;
70255;PMS5003;57669;52.624;-1.688;2022-07-29T03:42:21;3;3;
70255;PMS5003;57669;52.624;-1.688;2022-07-29T03:44:47;1;1;
70255;PMS5003;57669;52.624;-1.688;2022-07-29T03:47:12;3;2;
70255;PMS5003;57669;52.624;-1.688;2022-07-29T03:49:38;5;4;
70255;PMS5003;57669;52.624;-1.688;2022-07-29T03:52:04;4;4;
70255;PMS5003;57669;52.624;-1.688;2022-07-29T03:54:29;5;3;
70255;PMS5003;57669;52.624;-1.688;2022-07-29T03:56:55;3;3;
70255;PMS5003;57669;52.624;-1.688;2022-07-29T03:59:21;2;2;
70255;PMS5003;57669;52.624;-1.688;2022-07-29T04:01:46;3;3;
70255;PMS5003;57669;52.624;-1.688;2022-07-29T04:04:12;2;2;
70255;PMS5003;57669;52.624;-1.688;2022-07-29T04:06:38;4;3;
70255;PMS5003;57669;52.624;-1.688;2022-07-29T04:09:03;4;2;
70255;PMS5003;57669;52.624;-1.688;2022-07-29T04:11:29;2;2;
70255;PMS5003;57669;52.624;-1.688;2022-07-29T04:13:55;4;4;
70255;PMS5003;57669;52.624;-1.688;2022-07-29T04:16:20;3;3;
70255;PMS5003;57669;52.624;-1.688;2022-07-29T04:18:46;2;2;
70255;PMS5003;57669;52.624;-1.688;2022-07-29T04:21:12;3;3;
70255;PMS5003;57669;52.624;-1.688;2022-07-29T04:23:37;7;6;
70255;PMS5003;57669;52.624;-1.688;2022-07-29T04:26:03;4;3;
70255;PMS5003;57669;52.624;-1.688;2022-07-29T04:28:29;4;4;
70255;PMS5003;57669;52.624;-1.688;2022-07-29T04:30:55;3;3;
70255;PMS5003;57669;52.624;-1.688;2022-07-29T04:33:20;3;3;
70255;PMS5003;57669;52.624;-1.688;2022-07-29T04:35:46;3;3;
70255;PMS5003;57669;52.624;-1.688;2022-07-29T04:38:12;3;3;
70255;PMS5003;57669;52.624;-1.688;2022-07-29T04:40:37;3;3;
70255;PMS5003;57669;52.624;-1.688;2022-07-29T04:43:03;3;3;
70255;PMS5003;57669;52.624;-1.688;2022-07-29T04:45:28;4;3;
70255;PMS5003;57669;52.624;-1.688;2022-07-29T04:47:54;3;3;
70255;PMS5003;57669;52.624;-1.688;2022-07-29T04:50:20;4;4;
70255;PMS5003;57669;52.624;-1.688;2022-07-29T04:52:45;3;3;
70255;PMS5003;57669;52.624;-1.688;2022-07-29T04:55:11;4;4;
70255;PMS5003;57669;52.624;-1.688;2022-07-29T04:57:37;2;2;
70255;PMS5003;57669;52.624;-1.688;2022-07-29T05:00:03;6;6;
70255;PMS5003;57669;52.624;-1.688;2022-07-29T05:02:28;2;2;
70255;PMS5003;57669;52.624;-1.688;2022-07-29T05:04:53;3;3;
70255;PMS5003;57669;52.624;-1.688;2022-07-29T05:07:19;3;1;
70255;PMS5003;57669;52.624;-1.688;2022-07-29T05:09:45;4;4;
70255;PMS5003;57669;52.624;-1.688;2022-07-29T05:12:11;2;1;
70255;PMS5003;57669;52.624;-1.688;2022-07-29T05:14:36;2;2;
70255;PMS5003;57669;52.624;-1.688;2022-07-29T05:17:02;3;3;
70255;PMS5003;57669;52.624;-1.688;2022-07-29T05:19:28;2;1;
70255;PMS5003;57669;52.624;-1.688;2022-07-29T05:21:53;1;1;
70255;PMS5003;57669;52.624;-1.688;2022-07-29T05:24:19;3;2;
70255;PMS5003;57669;52.624;-1.688;2022-07-29T05:26:45;3;3;
70255;PMS5003;57669;52.624;-1.688;2022-07-29T05:29:10;3;3;
70255;PMS5003;57669;52.624;-1.688;2022-07-29T05:31:36;3;3;
70255;PMS5003;57669;52.624;-1.688;2022-07-29T05:34:02;5;4;
70255;PMS5003;57669;52.624;-1.688;2022-07-29T05:36:28;2;2;
70255;PMS5003;57669;52.624;-1.688;2022-07-29T05:38:53;3;2;
70255;PMS5003;57669;52.624;-1.688;2022-07-29T05:41:19;3;3;
70255;PMS5003;57669;52.624;-1.688;2022-07-29T05:43:45;4;4;
70255;PMS5003;57669;52.624;-1.688;2022-07-29T05:46:10;4;4;
70255;PMS5003;57669;52.624;-1.688;2022-07-29T05:48:36;4;4;
70255;PMS5003;57669;52.624;-1.688;2022-07-29T05:51:02;2;2;
70255;PMS5003;57669;52.624;-1.688;2022-07-29T05:53:28;3;3;
70255;PMS5003;57669;52.624;-1.688;2022-07-29T05:55:53;4;3;
70255;PMS5003;57669;52.624;-1.688;2022-07-29T05:58:19;2;2;
70255;PMS5003;57669;52.624;-1.688;2022-07-29T06:00:44;4;3;
70255;PMS5003;57669;52.624;-1.688;2022-07-29T06:03:10;3;3;
70255;PMS5003;57669;52.624;-1.688;2022-07-29T06:05:36;5;3;
70255;PMS5003;57669;52.624;-1.688;2022-07-29T06:08:01;2;2;
70255;PMS5003;57669;52.624;-1.688;2022-07-29T06:10:27;3;3;
70255;PMS5003;57669;52.624;-1.688;2022-07-29T06:12:53;4;3;
70255;PMS5003;57669;52.624;-1.688;2022-07-29T06:15:18;4;4;
70255;PMS5003;57669;52.624;-1.688;2022-07-29T06:17:44;9;7;
70255;PMS5003;57669;52.624;-1.688;2022-07-29T06:20:10;8;8;
70255;PMS5003;57669;52.624;-1.688;2022-07-29T06:22:36;4;4;
70255;PMS5003;57669;52.624;-1.688;2022-07-29T06:25:01;2;2;
70255;PMS5003;57669;52.624;-1.688;2022-07-29T06:27:27;4;4;
70255;PMS5003;57669;52.624;-1.688;2022-07-29T06:29:52;3;3;
70255;PMS5003;57669;52.624;-1.688;2022-07-29T06:32:18;4;3;
70255;PMS5003;57669;52.624;-1.688;2022-07-29T06:34:44;4;4;
70255;PMS5003;57669;52.624;-1.688;2022-07-29T06:37:09;3;3;
70255;PMS5003;57669;52.624;-1.688;2022-07-29T06:39:35;3;2;
70255;PMS5003;57669;52.624;-1.688;2022-07-29T06:42:01;3;3;
70255;PMS5003;57669;52.624;-1.688;2022-07-29T06:44:26;5;4;
70255;PMS5003;57669;52.624;-1.688;2022-07-29T06:46:52;3;2;
70255;PMS5003;57669;52.624;-1.688;2022-07-29T06:49:17;2;2;
70255;PMS5003;57669;52.624;-1.688;2022-07-29T06:51:43;3;3;
70255;PMS5003;57669;52.624;-1.688;2022-07-29T06:54:09;6;3;
70255;PMS5003;57669;52.624;-1.688;2022-07-29T06:56:34;4;4;
70255;PMS5003;57669;52.624;-1.688;2022-07-29T06:59:00;3;2;
70255;PMS5003;57669;52.624;-1.688;2022-07-29T07:01:26;4;4;
70255;PMS5003;57669;52.624;-1.688;2022-07-29T07:03:51;5;4;
70255;PMS5003;57669;52.624;-1.688;2022-07-29T07:06:17;5;4;
70255;PMS5003;57669;52.624;-1.688;2022-07-29T07:08:42;2;2;
70255;PMS5003;57669;52.624;-1.688;2022-07-29T07:11:08;1;1;
70255;PMS5003;57669;52.624;-1.688;2022-07-29T07:13:34;4;4;
70255;PMS5003;57669;52.624;-1.688;2022-07-29T07:16:00;4;3;
70255;PMS5003;57669;52.624;-1.688;2022-07-29T07:18:25;3;3;
70255;PMS5003;57669;52.624;-1.688;2022-07-29T07:20:51;3;2;
70255;PMS5003;57669;52.624;-1.688;2022-07-29T07:23:17;5;3;
70255;PMS5003;57669;52.624;-1.688;2022-07-29T07:25:42;4;3;
70255;PMS5003;57669;52.624;-1.688;2022-07-29T07:28:08;3;3;
70255;PMS5003;57669;52.624;-1.688;2022-07-29T07:30:34;2;2;
70255;PMS5003;57669;52.624;-1.688;2022-07-29T07:32:59;3;2;
70255;PMS5003;57669;52.624;-1.688;2022-07-29T07:35:25;3;2;
70255;PMS5003;57669;52.624;-1.688;2022-07-29T07:37:51;3;3;
70255;PMS5003;57669;52.624;-1.688;2022-07-29T07:40:16;2;1;
70255;PMS5003;57669;52.624;-1.688;2022-07-29T07:42:42;2;2;
70255;PMS5003;57669;52.624;-1.688;2022-07-29T07:45:08;2;2;
70255;PMS5003;57669;52.624;-1.688;2022-07-29T07:47:33;2;1;
70255;PMS5003;57669;52.624;-1.688;2022-07-29T07:49:59;3;3;
70255;PMS5003;57669;52.624;-1.688;2022-07-29T07:52:25;3;3;
70255;PMS5003;57669;52.624;-1.688;2022-07-29T07:54:50;1;1;
70255;PMS5003;57669;52.624;-1.688;2022-07-29T07:57:16;2;2;
70255;PMS5003;57669;52.624;-1.688;2022-07-29T07:59:42;3;3;
70255;PMS5003;57669;52.624;-1.688;2022-07-29T08:02:08;2;2;
70255;PMS5003;57669;52.624;-1.688;2022-07-29T08:04:33;3;3;
70255;PMS5003;57669;52.624;-1.688;2022-07-29T08:06:59;1;1;
70255;PMS5003;57669;52.624;-1.688;2022-07-29T08:09:25;3;3;
70255;PMS5003;57669;52.624;-1.688;2022-07-29T08:11:50;2;1;
70255;PMS5003;57669;52.624;-1.688;2022-07-29T08:14:16;1;0;
70255;PMS5003;57669;52.624;-1.688;2022-07-29T08:16:41;1;1;
70255;PMS5003;57669;52.624;-1.688;2022-07-29T08:19:07;2;1;
70255;PMS5003;57669;52.624;-1.688;2022-07-29T08:21:33;2;2;
70255;PMS5003;57669;52.624;-1.688;2022-07-29T08:23:58;4;3;
70255;PMS5003;57669;52.624;-1.688;2022-07-29T08:26:24;3;2;
70255;PMS5003;57669;52.624;-1.688;2022-07-29T08:28:49;3;2;
70255;PMS5003;57669;52.624;-1.688;2022-07-29T08:31:15;1;1;
70255;PMS5003;57669;52.624;-1.688;2022-07-29T08:33:41;0;0;
70255;PMS5003;57669;52.624;-1.688;2022-07-29T08:36:07;1;1;
70255;PMS5003;57669;52.624;-1.688;2022-07-29T08:38:32;2;2;
70255;PMS5003;57669;52.624;-1.688;2022-07-29T08:40:58;3;3;
70255;PMS5003;57669;52.624;-1.688;2022-07-29T08:43:23;2;2;
70255;PMS5003;57669;52.624;-1.688;2022-07-29T08:45:50;3;2;
70255;PMS5003;57669;52.624;-1.688;2022-07-29T08:48:15;3;3;
70255;PMS5003;57669;52.624;-1.688;2022-07-29T08:50:41;2;2;
70255;PMS5003;57669;52.624;-1.688;2022-07-29T08:53:06;4;4;
70255;PMS5003;57669;52.624;-1.688;2022-07-29T08:55:31;4;3;
70255;PMS5003;57669;52.624;-1.688;2022-07-29T08:57:57;3;3;
70255;PMS5003;57669;52.624;-1.688;2022-07-29T09:00:23;2;2;
70255;PMS5003;57669;52.624;-1.688;2022-07-29T09:02:50;3;3;
70255;PMS5003;57669;52.624;-1.688;2022-07-29T09:05:14;2;2;
70255;PMS5003;57669;52.624;-1.688;2022-07-29T09:07:40;2;2;
70255;PMS5003;57669;52.624;-1.688;2022-07-29T09:10:06;1;1;
70255;PMS5003;57669;52.624;-1.688;2022-07-29T09:12:31;4;2;
70255;PMS5003;57669;52.624;-1.688;2022-07-29T09:14:56;4;4;
70255;PMS5003;57669;52.624;-1.688;2022-07-29T09:19:48;3;3;
70255;PMS5003;57669;52.624;-1.688;2022-07-29T09:22:13;4;4;
70255;PMS5003;57669;52.624;-1.688;2022-07-29T09:24:40;5;5;
70255;PMS5003;57669;52.624;-1.688;2022-07-29T09:27:08;3;3;
70255;PMS5003;57669;52.624;-1.688;2022-07-29T09:29:30;5;4;
70255;PMS5003;57669;52.624;-1.688;2022-07-29T09:31:56;7;4;
70255;PMS5003;57669;52.624;-1.688;2022-07-29T09:34:22;7;7;
70255;PMS5003;57669;52.624;-1.688;2022-07-29T09:36:48;4;3;
70255;PMS5003;57669;52.624;-1.688;2022-07-29T09:39:13;5;4;
70255;PMS5003;57669;52.624;-1.688;2022-07-29T09:44:04;5;5;
70255;PMS5003;57669;52.624;-1.688;2022-07-29T09:46:29;4;3;
70255;PMS5003;57669;52.624;-1.688;2022-07-29T09:51:21;7;5;
70255;PMS5003;57669;52.624;-1.688;2022-07-29T09:53:46;4;4;
70255;PMS5003;57669;52.624;-1.688;2022-07-29T09:56:12;4;4;
70255;PMS5003;57669;52.624;-1.688;2022-07-29T09:58:38;3;3;
70255;PMS5003;57669;52.624;-1.688;2022-07-29T10:01:03;3;3;
70255;PMS5003;57669;52.624;-1.688;2022-07-29T10:03:29;5;4;
70255;PMS5003;57669;52.624;-1.688;2022-07-29T10:08:24;3;3;
70255;PMS5003;57669;52.624;-1.688;2022-07-29T10:10:46;4;4;
70255;PMS5003;57669;52.624;-1.688;2022-07-29T10:13:12;4;3;
70255;PMS5003;57669;52.624;-1.688;2022-07-29T10:15:38;3;3;
70255;PMS5003;57669;52.624;-1.688;2022-07-29T10:18:03;5;5;
70255;PMS5003;57669;52.624;-1.688;2022-07-29T10:20:28;3;3;
70255;PMS5003;57669;52.624;-1.688;2022-07-29T10:22:54;4;4;
70255;PMS5003;57669;52.624;-1.688;2022-07-29T10:25:20;5;5;
70255;PMS5003;57669;52.624;-1.688;2022-07-29T10:27:46;5;5;
70255;PMS5003;57669;52.624;-1.688;2022-07-29T10:30:11;7;6;
70255;PMS5003;57669;52.624;-1.688;2022-07-29T10:32:46;5;5;
70255;PMS5003;57669;52.624;-1.688;2022-07-29T10:37:29;6;5;
70255;PMS5003;57669;52.624;-1.688;2022-07-29T10:39:54;5;5;
70255;PMS5003;57669;52.624;-1.688;2022-07-29T10:42:19;6;6;
70255;PMS5003;57669;52.624;-1.688;2022-07-29T10:44:44;9;7;
70255;PMS5003;57669;52.624;-1.688;2022-07-29T10:49:36;6;5;
70255;PMS5003;57669;52.624;-1.688;2022-07-29T10:52:03;5;5;
70255;PMS5003;57669;52.624;-1.688;2022-07-29T10:56:52;6;6;
70255;PMS5003;57669;52.624;-1.688;2022-07-29T11:01:44;6;5;
70255;PMS5003;57669;52.624;-1.688;2022-07-29T11:04:09;7;7;
70255;PMS5003;57669;52.624;-1.688;2022-07-29T11:11:30;9;8;
70255;PMS5003;57669;52.624;-1.688;2022-07-29T11:13:52;6;6;
70255;PMS5003;57669;52.624;-1.688;2022-07-29T11:16:18;6;6;
70255;PMS5003;57669;52.624;-1.688;2022-07-29T11:21:09;6;5;
70255;PMS5003;57669;52.624;-1.688;2022-07-29T11:23:34;8;7;
70255;PMS5003;57669;52.624;-1.688;2022-07-29T11:28:25;7;7;
70255;PMS5003;57669;52.624;-1.688;2022-07-29T11:30:52;6;6;
70255;PMS5003;57669;52.624;-1.688;2022-07-29T11:35:42;6;6;
70255;PMS5003;57669;52.624;-1.688;2022-07-29T11:40:34;7;6;
70255;PMS5003;57669;52.624;-1.688;2022-07-29T11:42:59;6;6;
70255;PMS5003;57669;52.624;-1.688;2022-07-29T11:45:26;7;7;
70255;PMS5003;57669;52.624;-1.688;2022-07-29T11:47:51;6;6;
70255;PMS5003;57669;52.624;-1.688;2022-07-29T11:50:17;6;5;
70255;PMS5003;57669;52.624;-1.688;2022-07-29T11:52:42;5;5;
70255;PMS5003;57669;52.624;-1.688;2022-07-29T11:55:07;7;7;
70255;PMS5003;57669;52.624;-1.688;2022-07-29T11:57:33;6;5;
70255;PMS5003;57669;52.624;-1.688;2022-07-29T11:59:58;8;8;
70255;PMS5003;57669;52.624;-1.688;2022-07-29T12:02:24;5;5;
70255;PMS5003;57669;52.624;-1.688;2022-07-29T12:04:49;5;5;
70255;PMS5003;57669;52.624;-1.688;2022-07-29T12:07:15;6;6;
70255;PMS5003;57669;52.624;-1.688;2022-07-29T12:09:40;8;7;
70255;PMS5003;57669;52.624;-1.688;2022-07-29T12:12:06;8;7;
70255;PMS5003;57669;52.624;-1.688;2022-07-29T12:14:32;6;6;
70255;PMS5003;57669;52.624;-1.688;2022-07-29T12:16:57;8;7;
70255;PMS5003;57669;52.624;-1.688;2022-07-29T12:19:23;8;7;
70255;PMS5003;57669;52.624;-1.688;2022-07-29T12:21:49;7;7;
70255;PMS5003;57669;52.624;-1.688;2022-07-29T12:24:14;6;6;
70255;PMS5003;57669;52.624;-1.688;2022-07-29T12:29:05;5;5;
70255;PMS5003;57669;52.624;-1.688;2022-07-29T12:31:30;9;8;
70255;PMS5003;57669;52.624;-1.688;2022-07-29T12:33:56;7;7;
70255;PMS5003;57669;52.624;-1.688;2022-07-29T12:36:21;5;5;
70255;PMS5003;57669;52.624;-1.688;2022-07-29T12:38:46;7;6;
70255;PMS5003;57669;52.624;-1.688;2022-07-29T12:41:12;8;8;
70255;PMS5003;57669;52.624;-1.688;2022-07-29T12:43:37;6;6;
70255;PMS5003;57669;52.624;-1.688;2022-07-29T12:48:32;6;6;
70255;PMS5003;57669;52.624;-1.688;2022-07-29T12:50:56;6;6;
70255;PMS5003;57669;52.624;-1.688;2022-07-29T12:53:19;7;6;
70255;PMS5003;57669;52.624;-1.688;2022-07-29T12:55:45;7;7;
70255;PMS5003;57669;52.624;-1.688;2022-07-29T12:58:10;10;9;
70255;PMS5003;57669;52.624;-1.688;2022-07-29T13:00:36;7;7;
70255;PMS5003;57669;52.624;-1.688;2022-07-29T13:03:01;9;8;
70255;PMS5003;57669;52.624;-1.688;2022-07-29T13:07:52;9;8;
70255;PMS5003;57669;52.624;-1.688;2022-07-29T13:10:19;6;6;
70255;PMS5003;57669;52.624;-1.688;2022-07-29T13:15:12;7;7;
70255;PMS5003;57669;52.624;-1.688;2022-07-29T13:17:39;6;5;
70255;PMS5003;57669;52.624;-1.688;2022-07-29T13:20:04;7;5;
70255;PMS5003;57669;52.624;-1.688;2022-07-29T13:22:25;9;8;
70255;PMS5003;57669;52.624;-1.688;2022-07-29T13:24:51;7;7;
70255;PMS5003;57669;52.624;-1.688;2022-07-29T13:27:16;9;8;
70255;PMS5003;57669;52.624;-1.688;2022-07-29T13:29:41;7;7;
70255;PMS5003;57669;52.624;-1.688;2022-07-29T13:32:07;7;7;
70255;PMS5003;57669;52.624;-1.688;2022-07-29T13:34:32;8;7;
70255;PMS5003;57669;52.624;-1.688;2022-07-29T13:36:58;8;7;
70255;PMS5003;57669;52.624;-1.688;2022-07-29T13:39:25;6;6;
70255;PMS5003;57669;52.624;-1.688;2022-07-29T13:41:49;7;7;
70255;PMS5003;57669;52.624;-1.688;2022-07-29T13:44:15;8;8;
70255;PMS5003;57669;52.624;-1.688;2022-07-29T13:46:40;7;7;
70255;PMS5003;57669;52.624;-1.688;2022-07-29T13:49:06;7;7;
70255;PMS5003;57669;52.624;-1.688;2022-07-29T13:51:32;7;6;
70255;PMS5003;57669;52.624;-1.688;2022-07-29T13:53:57;6;6;
70255;PMS5003;57669;52.624;-1.688;2022-07-29T13:56:23;8;8;
70255;PMS5003;57669;52.624;-1.688;2022-07-29T13:58:48;8;7;
70255;PMS5003;57669;52.624;-1.688;2022-07-29T14:01:14;7;7;
70255;PMS5003;57669;52.624;-1.688;2022-07-29T14:03:39;6;6;
70255;PMS5003;57669;52.624;-1.688;2022-07-29T14:06:05;6;6;
70255;PMS5003;57669;52.624;-1.688;2022-07-29T14:10:56;6;5;
70255;PMS5003;57669;52.624;-1.688;2022-07-29T14:13:21;8;7;
70255;PMS5003;57669;52.624;-1.688;2022-07-29T14:15:47;7;7;
70255;PMS5003;57669;52.624;-1.688;2022-07-29T14:18:13;7;6;
70255;PMS5003;57669;52.624;-1.688;2022-07-29T14:20:38;7;7;
70255;PMS5003;57669;52.624;-1.688;2022-07-29T14:23:04;8;8;
70255;PMS5003;57669;52.624;-1.688;2022-07-29T14:25:29;7;7;
70255;PMS5003;57669;52.624;-1.688;2022-07-29T14:27:55;8;7;
70255;PMS5003;57669;52.624;-1.688;2022-07-29T14:30:20;6;6;
70255;PMS5003;57669;52.624;-1.688;2022-07-29T14:32:46;8;8;
70255;PMS5003;57669;52.624;-1.688;2022-07-29T14:35:11;7;7;
70255;PMS5003;57669;52.624;-1.688;2022-07-29T14:37:37;9;7;
70255;PMS5003;57669;52.624;-1.688;2022-07-29T14:40:03;6;6;
70255;PMS5003;57669;52.624;-1.688;2022-07-29T14:42:28;7;7;
70255;PMS5003;57669;52.624;-1.688;2022-07-29T14:44:54;10;9;
70255;PMS5003;57669;52.624;-1.688;2022-07-29T14:47:19;8;8;
70255;PMS5003;57669;52.624;-1.688;2022-07-29T14:49:45;8;7;
70255;PMS5003;57669;52.624;-1.688;2022-07-29T14:52:10;7;7;
70255;PMS5003;57669;52.624;-1.688;2022-07-29T14:54:36;7;6;
70255;PMS5003;57669;52.624;-1.688;2022-07-29T14:57:02;9;8;
70255;PMS5003;57669;52.624;-1.688;2022-07-29T14:59:27;8;7;
70255;PMS5003;57669;52.624;-1.688;2022-07-29T15:01:53;7;7;
70255;PMS5003;57669;52.624;-1.688;2022-07-29T15:04:18;7;7;
70255;PMS5003;57669;52.624;-1.688;2022-07-29T15:06:44;7;7;
70255;PMS5003;57669;52.624;-1.688;2022-07-29T15:09:09;10;10;
70255;PMS5003;57669;52.624;-1.688;2022-07-29T15:11:35;6;6;
70255;PMS5003;57669;52.624;-1.688;2022-07-29T15:14:00;8;8;
70255;PMS5003;57669;52.624;-1.688;2022-07-29T15:16:26;7;7;
70255;PMS5003;57669;52.624;-1.688;2022-07-29T15:18:51;8;8;
70255;PMS5003;57669;52.624;-1.688;2022-07-29T15:21:17;9;8;
70255;PMS5003;57669;52.624;-1.688;2022-07-29T15:23:42;8;8;
70255;PMS5003;57669;52.624;-1.688;2022-07-29T15:26:08;8;8;
70255;PMS5003;57669;52.624;-1.688;2022-07-29T15:28:34;9;8;
70255;PMS5003;57669;52.624;-1.688;2022-07-29T15:30:59;9;9;
70255;PMS5003;57669;52.624;-1.688;2022-07-29T15:33:25;7;7;
70255;PMS5003;57669;52.624;-1.688;2022-07-29T15:35:50;8;8;
70255;PMS5003;57669;52.624;-1.688;2022-07-29T15:38:15;12;9;
70255;PMS5003;57669;52.624;-1.688;2022-07-29T15:40:41;6;6;
70255;PMS5003;57669;52.624;-1.688;2022-07-29T15:43:06;8;7;
70255;PMS5003;57669;52.624;-1.688;2022-07-29T15:45:35;8;8;
70255;PMS5003;57669;52.624;-1.688;2022-07-29T15:47:58;8;7;
70255;PMS5003;57669;52.624;-1.688;2022-07-29T15:50:23;6;6;
70255;PMS5003;57669;52.624;-1.688;2022-07-29T15:52:49;9;8;
70255;PMS5003;57669;52.624;-1.688;2022-07-29T15:55:15;9;8;
70255;PMS5003;57669;52.624;-1.688;2022-07-29T15:57:43;7;7;
70255;PMS5003;57669;52.624;-1.688;2022-07-29T16:00:06;9;8;
70255;PMS5003;57669;52.624;-1.688;2022-07-29T16:02:31;7;6;
70255;PMS5003;57669;52.624;-1.688;2022-07-29T16:04:57;7;7;
70255;PMS5003;57669;52.624;-1.688;2022-07-29T16:07:22;8;8;
70255;PMS5003;57669;52.624;-1.688;2022-07-29T16:09:47;8;7;
70255;PMS5003;57669;52.624;-1.688;2022-07-29T16:12:13;7;7;
70255;PMS5003;57669;52.624;-1.688;2022-07-29T16:14:39;8;7;
70255;PMS5003;57669;52.624;-1.688;2022-07-29T16:17:04;6;6;
70255;PMS5003;57669;52.624;-1.688;2022-07-29T16:19:30;9;8;
70255;PMS5003;57669;52.624;-1.688;2022-07-29T16:21:56;7;7;
70255;PMS5003;57669;52.624;-1.688;2022-07-29T16:24:21;7;7;
70255;PMS5003;57669;52.624;-1.688;2022-07-29T16:26:47;8;7;
70255;PMS5003;57669;52.624;-1.688;2022-07-29T16:29:12;8;8;
70255;PMS5003;57669;52.624;-1.688;2022-07-29T16:31:38;8;8;
70255;PMS5003;57669;52.624;-1.688;2022-07-29T16:34:04;7;7;
70255;PMS5003;57669;52.624;-1.688;2022-07-29T16:36:29;6;6;
70255;PMS5003;57669;52.624;-1.688;2022-07-29T16:38:55;10;10;
70255;PMS5003;57669;52.624;-1.688;2022-07-29T16:41:20;9;8;
70255;PMS5003;57669;52.624;-1.688;2022-07-29T16:43:46;9;9;
70255;PMS5003;57669;52.624;-1.688;2022-07-29T16:46:12;8;8;
70255;PMS5003;57669;52.624;-1.688;2022-07-29T16:48:37;6;5;
70255;PMS5003;57669;52.624;-1.688;2022-07-29T16:51:02;8;8;
70255;PMS5003;57669;52.624;-1.688;2022-07-29T16:53:28;8;8;
70255;PMS5003;57669;52.624;-1.688;2022-07-29T16:55:53;7;6;
70255;PMS5003;57669;52.624;-1.688;2022-07-29T16:58:19;6;6;
70255;PMS5003;57669;52.624;-1.688;2022-07-29T17:00:45;7;6;
70255;PMS5003;57669;52.624;-1.688;2022-07-29T17:03:10;8;8;
70255;PMS5003;57669;52.624;-1.688;2022-07-29T17:05:36;7;7;
70255;PMS5003;57669;52.624;-1.688;2022-07-29T17:08:01;7;7;
70255;PMS5003;57669;52.624;-1.688;2022-07-29T17:10:27;7;7;
70255;PMS5003;57669;52.624;-1.688;2022-07-29T17:12:52;8;7;
70255;PMS5003;57669;52.624;-1.688;2022-07-29T17:15:18;6;6;
70255;PMS5003;57669;52.624;-1.688;2022-07-29T17:17:44;8;8;